createdAt,value
2017-11-03T00:01:49.062Z,16.40
2017-11-03T00:04:17.263Z,16.40
2017-11-03T00:06:44.723Z,16.50
2017-11-03T00:09:12.157Z,16.00
2017-11-03T00:11:39.639Z,15.60
2017-11-03T00:14:07.096Z,15.80
2017-11-03T00:16:34.557Z,15.90
2017-11-03T00:19:01.978Z,16.00
2017-11-03T00:21:29.446Z,16.00
2017-11-03T00:23:56.943Z,16.20
2017-11-03T00:26:24.389Z,16.10
2017-11-03T00:28:51.839Z,16.10
2017-11-03T00:31:19.315Z,16.30
2017-11-03T00:33:46.774Z,16.40
2017-11-03T00:36:14.230Z,16.50
2017-11-03T00:38:41.694Z,16.50
2017-11-03T00:41:09.134Z,16.60
2017-11-03T00:43:36.610Z,16.60
2017-11-03T00:46:04.046Z,16.50
2017-11-03T00:48:31.525Z,16.50
2017-11-03T00:50:58.985Z,16.60
2017-11-03T00:53:26.447Z,16.50
2017-11-03T00:55:53.906Z,16.40
2017-11-03T00:58:21.368Z,16.50
2017-11-03T01:00:48.885Z,16.40
2017-11-03T01:03:17.261Z,16.20
2017-11-03T01:05:44.725Z,16.20
2017-11-03T01:08:12.140Z,16.30
2017-11-03T01:10:39.572Z,16.20
2017-11-03T01:13:07.757Z,16.10
2017-11-03T01:15:35.994Z,16.10
2017-11-03T01:18:03.454Z,16.10
2017-11-03T01:20:30.921Z,16.10
2017-11-03T01:22:58.389Z,16.30
2017-11-03T01:25:26.672Z,16.50
2017-11-03T01:27:54.122Z,16.50
2017-11-03T01:30:21.656Z,16.50
2017-11-03T01:32:49.151Z,16.40
2017-11-03T01:35:18.289Z,16.00
2017-11-03T01:37:45.722Z,16.00
2017-11-03T01:40:13.157Z,16.00
2017-11-03T01:42:41.428Z,16.30
2017-11-03T01:45:08.874Z,16.30
2017-11-03T01:47:36.327Z,16.30
2017-11-03T01:50:03.788Z,16.10
2017-11-03T01:52:31.246Z,16.10
2017-11-03T01:54:58.705Z,16.20
2017-11-03T01:57:26.169Z,16.20
2017-11-03T01:59:53.654Z,16.20
2017-11-03T02:02:21.163Z,16.00
2017-11-03T02:04:48.572Z,16.00
2017-11-03T02:07:16.054Z,16.00
2017-11-03T02:09:43.491Z,16.00
2017-11-03T02:12:10.958Z,16.10
2017-11-03T02:14:38.406Z,16.20
2017-11-03T02:17:05.870Z,16.30
2017-11-03T02:19:33.328Z,16.30
2017-11-03T02:22:00.782Z,16.30
2017-11-03T02:24:28.255Z,16.30
2017-11-03T02:26:55.709Z,16.30
2017-11-03T02:29:23.160Z,16.40
2017-11-03T02:31:50.647Z,16.10
2017-11-03T02:34:18.090Z,16.20
2017-11-03T02:36:46.583Z,16.10
2017-11-03T02:39:14.042Z,16.00
2017-11-03T02:41:41.539Z,16.20
2017-11-03T02:44:08.993Z,16.20
2017-11-03T02:46:36.482Z,16.20
2017-11-03T02:49:03.945Z,16.30
2017-11-03T02:51:31.365Z,16.40
2017-11-03T02:53:58.875Z,16.40
2017-11-03T02:56:26.365Z,16.20
2017-11-03T02:58:53.792Z,16.20
2017-11-03T03:01:21.282Z,16.30
2017-11-03T03:03:48.713Z,16.30
2017-11-03T03:06:16.210Z,15.80
2017-11-03T03:08:43.665Z,15.70
2017-11-03T03:11:11.122Z,15.80
2017-11-03T03:13:38.551Z,15.90
2017-11-03T03:16:06.038Z,15.80
2017-11-03T03:18:33.503Z,16.00
2017-11-03T03:21:00.963Z,16.20
2017-11-03T03:23:28.428Z,16.10
2017-11-03T03:25:56.649Z,16.10
2017-11-03T03:28:24.156Z,16.10
2017-11-03T03:30:51.618Z,16.20
2017-11-03T03:33:19.073Z,16.00
2017-11-03T03:35:46.534Z,15.90
2017-11-03T03:38:14.002Z,16.00
2017-11-03T03:40:41.453Z,15.90
2017-11-03T03:43:08.959Z,15.60
2017-11-03T03:45:36.387Z,15.90
2017-11-03T03:48:04.635Z,15.60
2017-11-03T03:50:32.109Z,15.60
2017-11-03T03:52:59.565Z,15.70
2017-11-03T03:55:26.988Z,15.50
2017-11-03T03:57:54.454Z,15.60
2017-11-03T04:00:21.901Z,15.60
2017-11-03T04:02:49.351Z,15.90
2017-11-03T04:05:17.599Z,15.90
2017-11-03T04:07:45.041Z,16.10
2017-11-03T04:10:12.475Z,16.00
2017-11-03T04:12:39.930Z,16.00
2017-11-03T04:15:07.392Z,15.80
2017-11-03T04:17:34.866Z,15.70
2017-11-03T04:20:03.049Z,15.90
2017-11-03T04:22:31.286Z,15.80
2017-11-03T04:24:58.740Z,15.80
2017-11-03T04:27:26.202Z,15.80
2017-11-03T04:29:53.658Z,15.70
2017-11-03T04:32:21.117Z,16.00
2017-11-03T04:34:48.577Z,16.20
2017-11-03T04:37:16.037Z,16.30
2017-11-03T04:39:43.495Z,16.40
2017-11-03T04:42:10.960Z,16.20
2017-11-03T04:44:39.238Z,16.30
2017-11-03T04:47:06.694Z,16.30
2017-11-03T04:49:34.188Z,16.30
2017-11-03T04:52:02.384Z,16.40
2017-11-03T04:54:29.815Z,16.40
2017-11-03T04:56:57.289Z,16.10
2017-11-03T04:59:24.726Z,16.00
2017-11-03T05:01:52.189Z,16.00
2017-11-03T05:04:19.662Z,15.50
2017-11-03T05:06:47.118Z,15.80
2017-11-03T05:09:14.589Z,16.00
2017-11-03T05:11:42.046Z,15.60
2017-11-03T05:14:09.509Z,15.70
2017-11-03T05:16:36.947Z,15.70
2017-11-03T05:19:04.436Z,15.70
2017-11-03T05:21:31.884Z,15.80
2017-11-03T05:23:59.316Z,15.90
2017-11-03T05:26:27.010Z,15.80
2017-11-03T05:28:54.467Z,15.80
2017-11-03T05:31:21.901Z,15.60
2017-11-03T05:33:49.381Z,15.80
2017-11-03T05:36:17.770Z,15.80
2017-11-03T05:38:45.197Z,15.30
2017-11-03T05:41:12.687Z,15.60
2017-11-03T05:43:40.148Z,15.90
2017-11-03T05:46:07.586Z,16.10
2017-11-03T05:48:35.037Z,16.20
2017-11-03T05:51:02.502Z,15.70
2017-11-03T05:53:29.981Z,15.70
2017-11-03T05:55:57.408Z,15.80
2017-11-03T05:58:24.874Z,15.90
2017-11-03T06:00:52.338Z,15.30
2017-11-03T06:03:19.806Z,15.40
2017-11-03T06:05:47.279Z,15.80
2017-11-03T06:08:14.742Z,15.70
2017-11-03T06:10:42.200Z,15.90
2017-11-03T06:13:09.649Z,16.10
2017-11-03T06:15:37.105Z,16.10
2017-11-03T06:18:04.985Z,16.10
2017-11-03T06:20:32.450Z,15.90
2017-11-03T06:22:59.907Z,16.00
2017-11-03T06:25:27.358Z,16.10
2017-11-03T06:27:54.837Z,16.00
2017-11-03T06:30:22.270Z,16.00
2017-11-03T06:32:49.729Z,15.80
2017-11-03T06:35:18.096Z,15.90
2017-11-03T06:37:45.569Z,15.90
2017-11-03T06:40:13.034Z,15.90
2017-11-03T06:42:41.217Z,15.90
2017-11-03T06:45:09.459Z,16.00
2017-11-03T06:47:36.926Z,16.00
2017-11-03T06:50:04.380Z,16.10
2017-11-03T06:52:31.821Z,16.20
2017-11-03T06:54:59.303Z,16.30
2017-11-03T06:57:26.749Z,16.30
2017-11-03T06:59:54.219Z,16.20
2017-11-03T07:02:21.681Z,16.20
2017-11-03T07:04:49.885Z,16.40
2017-11-03T07:07:18.033Z,16.40
2017-11-03T07:09:46.289Z,16.50
2017-11-03T07:12:13.743Z,16.50
2017-11-03T07:14:41.248Z,16.50
2017-11-03T07:17:09.526Z,16.60
2017-11-03T07:19:37.717Z,16.50
2017-11-03T07:22:05.169Z,16.50
2017-11-03T07:24:33.398Z,16.40
2017-11-03T07:27:00.861Z,16.40
2017-11-03T07:29:28.315Z,16.50
2017-11-03T07:31:55.775Z,16.30
2017-11-03T07:34:23.202Z,16.30
2017-11-03T07:36:50.649Z,16.40
2017-11-03T07:39:18.080Z,16.60
2017-11-03T07:41:45.529Z,16.70
2017-11-03T07:44:12.989Z,16.80
2017-11-03T07:46:40.453Z,16.70
2017-11-03T07:49:11.506Z,16.40
2017-11-03T07:51:39.687Z,16.50
2017-11-03T07:54:07.129Z,16.50
2017-11-03T07:56:34.597Z,16.50
2017-11-03T07:59:02.077Z,16.50
2017-11-03T08:01:29.501Z,16.50
2017-11-03T08:03:56.990Z,16.60
2017-11-03T08:06:24.442Z,16.60
2017-11-03T08:08:51.914Z,16.10
2017-11-03T08:11:20.146Z,16.20
2017-11-03T08:13:48.360Z,16.40
2017-11-03T08:16:15.821Z,16.30
2017-11-03T08:18:43.286Z,16.30
2017-11-03T08:21:10.738Z,16.10
2017-11-03T08:23:38.173Z,16.10
2017-11-03T08:26:05.654Z,16.10
2017-11-03T08:28:33.098Z,16.30
2017-11-03T08:31:00.577Z,16.30
2017-11-03T08:33:28.014Z,16.50
2017-11-03T08:35:55.490Z,16.40
2017-11-03T08:38:22.933Z,16.00
2017-11-03T08:40:50.448Z,16.30
2017-11-03T08:43:19.410Z,16.50
2017-11-03T08:45:46.864Z,16.50
2017-11-03T08:48:14.322Z,16.70
2017-11-03T08:50:41.785Z,16.70
2017-11-03T08:53:10.750Z,16.60
2017-11-03T08:55:38.219Z,16.60
2017-11-03T08:58:05.698Z,16.90
2017-11-03T09:00:33.148Z,16.90
2017-11-03T09:03:00.609Z,17.10
2017-11-03T09:05:28.056Z,17.10
2017-11-03T09:07:55.542Z,17.30
2017-11-03T09:10:22.978Z,17.00
2017-11-03T09:12:50.435Z,17.20
2017-11-03T09:15:19.135Z,17.50
2017-11-03T09:17:46.605Z,17.50
2017-11-03T09:20:14.053Z,17.40
2017-11-03T09:22:41.515Z,17.10
2017-11-03T09:25:08.970Z,17.40
2017-11-03T09:27:36.463Z,17.60
2017-11-03T09:30:04.655Z,17.20
2017-11-03T09:32:32.076Z,17.20
2017-11-03T09:35:00.300Z,17.30
2017-11-03T09:37:27.770Z,17.30
2017-11-03T09:39:55.224Z,17.60
2017-11-03T09:42:22.679Z,17.70
2017-11-03T09:44:50.169Z,17.70
2017-11-03T09:47:18.389Z,17.60
2017-11-03T09:49:45.821Z,17.60
2017-11-03T09:52:13.282Z,17.90
2017-11-03T09:54:41.482Z,17.20
2017-11-03T09:57:08.945Z,17.20
2017-11-03T09:59:36.434Z,17.60
2017-11-03T10:02:03.941Z,17.50
2017-11-03T10:04:31.654Z,17.50
2017-11-03T10:06:59.126Z,17.80
2017-11-03T10:09:27.113Z,17.90
2017-11-03T10:11:55.321Z,18.00
2017-11-03T10:14:22.769Z,18.00
2017-11-03T10:16:51.007Z,18.10
2017-11-03T10:19:18.510Z,18.10
2017-11-03T10:21:45.950Z,18.20
2017-11-03T10:24:13.414Z,17.90
2017-11-03T10:26:40.898Z,17.80
2017-11-03T10:29:08.331Z,17.10
2017-11-03T10:31:35.810Z,17.30
2017-11-03T10:34:03.247Z,17.30
2017-11-03T10:36:31.113Z,17.20
2017-11-03T10:38:58.571Z,17.30
2017-11-03T10:41:26.054Z,17.50
2017-11-03T10:43:53.490Z,17.70
2017-11-03T10:46:20.970Z,17.70
2017-11-03T10:48:48.401Z,17.90
2017-11-03T10:51:15.869Z,17.90
2017-11-03T10:53:43.330Z,17.80
2017-11-03T10:56:10.805Z,17.50
2017-11-03T10:58:38.266Z,17.80
2017-11-03T11:01:05.704Z,17.90
2017-11-03T11:03:33.161Z,18.00
2017-11-03T11:06:00.619Z,18.00
2017-11-03T11:08:28.126Z,17.80
2017-11-03T11:10:55.572Z,17.70
2017-11-03T11:13:24.042Z,17.80
2017-11-03T11:15:51.484Z,18.00
2017-11-03T11:18:19.153Z,17.90
2017-11-03T11:20:46.768Z,17.80
2017-11-03T11:23:14.317Z,17.40
2017-11-03T11:25:42.625Z,17.60
2017-11-03T11:28:10.085Z,17.60
2017-11-03T11:30:37.541Z,17.60
2017-11-03T11:33:04.993Z,17.40
2017-11-03T11:35:32.453Z,17.30
2017-11-03T11:37:59.934Z,17.30
2017-11-03T11:40:27.465Z,17.30
2017-11-03T11:42:55.685Z,18.10
2017-11-03T11:45:23.129Z,18.00
2017-11-03T11:47:50.589Z,18.30
2017-11-03T11:50:18.692Z,18.50
2017-11-03T11:52:46.209Z,18.60
2017-11-03T11:55:13.674Z,18.60
2017-11-03T11:57:41.164Z,19.20
2017-11-03T12:00:08.613Z,19.70
2017-11-03T12:02:36.067Z,19.90
2017-11-03T12:05:03.825Z,19.90
2017-11-03T12:07:31.364Z,19.60
2017-11-03T12:09:58.868Z,19.40
2017-11-03T12:12:26.316Z,19.30
2017-11-03T12:14:53.746Z,18.90
2017-11-03T12:17:21.217Z,18.90
2017-11-03T12:19:48.665Z,18.30
2017-11-03T12:22:16.145Z,17.80
2017-11-03T12:24:43.610Z,18.80
2017-11-03T12:27:11.132Z,19.80
2017-11-03T12:29:38.625Z,20.00
2017-11-03T12:32:06.069Z,20.00
2017-11-03T12:34:33.545Z,19.60
2017-11-03T12:37:00.995Z,19.40
2017-11-03T12:39:28.461Z,18.80
2017-11-03T12:41:55.900Z,18.90
2017-11-03T12:44:23.375Z,18.90
2017-11-03T12:46:50.817Z,19.20
2017-11-03T12:49:18.720Z,19.60
2017-11-03T12:51:46.281Z,19.50
2017-11-03T12:54:13.794Z,19.50
2017-11-03T12:56:41.284Z,19.50
2017-11-03T12:59:08.822Z,19.70
2017-11-03T13:01:36.330Z,20.10
2017-11-03T13:04:03.783Z,20.10
2017-11-03T13:06:32.027Z,20.40
2017-11-03T13:08:59.538Z,20.40
2017-11-03T13:11:27.022Z,20.70
2017-11-03T13:13:54.502Z,21.10
2017-11-03T13:16:21.942Z,21.20
2017-11-03T13:18:49.538Z,21.20
2017-11-03T13:21:16.999Z,20.70
2017-11-03T13:23:44.447Z,20.40
2017-11-03T13:26:11.885Z,19.90
2017-11-03T13:28:39.356Z,19.60
2017-11-03T13:31:06.815Z,20.10
2017-11-03T13:33:35.496Z,20.90
2017-11-03T13:36:02.972Z,21.60
2017-11-03T13:38:30.453Z,22.20
2017-11-03T13:40:58.633Z,22.60
2017-11-03T13:43:26.081Z,22.60
2017-11-03T13:45:54.283Z,21.90
2017-11-03T13:48:21.723Z,21.90
2017-11-03T13:50:49.183Z,21.00
2017-11-03T13:53:16.641Z,20.60
2017-11-03T13:55:44.880Z,19.40
2017-11-03T13:58:12.340Z,19.40
2017-11-03T14:00:39.904Z,19.40
2017-11-03T14:03:07.393Z,19.10
2017-11-03T14:05:34.840Z,18.80
2017-11-03T14:08:03.045Z,18.90
2017-11-03T14:10:30.548Z,18.90
2017-11-03T14:12:58.032Z,19.30
2017-11-03T14:15:26.238Z,20.10
2017-11-03T14:17:53.699Z,20.10
2017-11-03T14:20:21.127Z,19.60
2017-11-03T14:22:52.889Z,19.10
2017-11-03T14:25:26.412Z,19.00
2017-11-03T14:27:56.838Z,19.00
2017-11-03T14:30:25.770Z,19.10
2017-11-03T14:32:55.340Z,19.20
2017-11-03T14:35:22.798Z,18.80
2017-11-03T14:37:50.244Z,18.30
2017-11-03T14:40:17.725Z,18.10
2017-11-03T14:42:45.181Z,18.00
2017-11-03T14:45:12.627Z,17.80
2017-11-03T14:47:40.209Z,17.70
2017-11-03T14:50:07.666Z,17.50
2017-11-03T14:52:35.110Z,17.70
2017-11-03T14:55:02.583Z,17.70
2017-11-03T14:57:30.068Z,17.60
2017-11-03T14:59:57.492Z,17.70
2017-11-03T15:02:24.977Z,17.80
2017-11-03T15:04:52.426Z,17.50
2017-11-03T15:07:19.877Z,17.50
2017-11-03T15:09:47.326Z,17.60
2017-11-03T15:12:14.774Z,17.90
2017-11-03T15:14:42.237Z,18.10
2017-11-03T15:17:09.709Z,18.20
2017-11-03T15:19:37.162Z,18.30
2017-11-03T15:22:04.633Z,18.20
2017-11-03T15:24:32.104Z,18.10
2017-11-03T15:26:59.543Z,18.10
2017-11-03T15:29:27.001Z,18.10
2017-11-03T15:31:54.462Z,18.10
2017-11-03T15:34:21.926Z,18.00
2017-11-03T15:36:49.408Z,17.90
2017-11-03T15:39:19.296Z,17.40
2017-11-03T15:41:46.753Z,17.40
2017-11-03T15:44:14.226Z,17.30
2017-11-03T15:46:41.694Z,17.30
2017-11-03T15:49:09.121Z,17.30
2017-11-03T15:51:36.573Z,17.10
2017-11-03T15:54:04.065Z,17.00
2017-11-03T15:56:31.555Z,17.00
2017-11-03T15:58:58.990Z,17.00
2017-11-03T16:01:27.226Z,17.10
2017-11-03T16:03:54.693Z,17.10
2017-11-03T16:06:22.145Z,17.00
2017-11-03T16:08:49.619Z,17.00
2017-11-03T16:11:17.074Z,17.00
2017-11-03T16:13:44.550Z,16.90
2017-11-03T16:16:12.794Z,16.90
2017-11-03T16:18:40.254Z,16.80
2017-11-03T16:21:07.722Z,16.90
2017-11-03T16:23:35.197Z,17.00
2017-11-03T16:26:03.477Z,17.00
2017-11-03T16:28:31.748Z,17.10
2017-11-03T16:30:59.182Z,17.00
2017-11-03T16:33:26.678Z,17.10
2017-11-03T16:35:54.878Z,17.10
2017-11-03T16:38:22.376Z,17.10
2017-11-03T16:40:49.838Z,17.20
2017-11-03T16:43:17.299Z,17.20
2017-11-03T16:45:44.778Z,17.20
2017-11-03T16:48:12.977Z,17.20
2017-11-03T16:50:40.445Z,17.20
2017-11-03T16:53:07.969Z,17.20
2017-11-03T16:55:35.418Z,17.30
2017-11-03T16:58:03.617Z,17.40
2017-11-03T17:00:31.081Z,17.30
2017-11-03T17:02:58.541Z,17.30
2017-11-03T17:05:25.994Z,17.30
2017-11-03T17:07:53.478Z,17.20
2017-11-03T17:10:20.937Z,17.20
2017-11-03T17:12:48.396Z,17.20
2017-11-03T17:15:15.856Z,17.20
2017-11-03T17:17:44.092Z,17.30
2017-11-03T17:20:12.308Z,17.30
2017-11-03T17:22:39.768Z,17.30
2017-11-03T17:25:07.226Z,17.30
2017-11-03T17:27:34.680Z,17.00
2017-11-03T17:30:02.123Z,17.10
2017-11-03T17:32:29.569Z,17.00
2017-11-03T17:34:57.246Z,17.20
2017-11-03T17:37:24.683Z,17.30
2017-11-03T17:39:52.170Z,17.30
2017-11-03T17:42:19.617Z,17.30
2017-11-03T17:44:47.080Z,17.30
2017-11-03T17:47:14.544Z,17.40
2017-11-03T17:49:42.037Z,17.30
2017-11-03T17:52:09.500Z,17.30
2017-11-03T17:54:36.961Z,17.20
2017-11-03T17:57:04.398Z,16.90
2017-11-03T17:59:31.870Z,17.00
2017-11-03T18:01:59.334Z,16.80
2017-11-03T18:04:26.769Z,16.90
2017-11-03T18:06:54.246Z,17.00
2017-11-03T18:09:21.690Z,17.00
2017-11-03T18:11:50.500Z,16.70
2017-11-03T18:14:18.018Z,16.80
2017-11-03T18:16:45.483Z,16.70
2017-11-03T18:19:12.965Z,16.50
2017-11-03T18:21:40.430Z,16.50
2017-11-03T18:24:07.861Z,16.30
2017-11-03T18:26:35.342Z,16.20
2017-11-03T18:29:02.806Z,16.10
2017-11-03T18:31:30.270Z,16.20
2017-11-03T18:33:57.737Z,16.20
2017-11-03T18:36:26.468Z,16.10
2017-11-03T18:38:53.957Z,16.10
2017-11-03T18:41:21.414Z,16.20
2017-11-03T18:43:48.870Z,16.50
2017-11-03T18:46:16.356Z,16.30
2017-11-03T18:48:44.572Z,16.30
2017-11-03T18:51:11.985Z,16.30
2017-11-03T18:53:40.212Z,16.10
2017-11-03T18:56:08.439Z,16.00
2017-11-03T18:58:36.642Z,16.10
2017-11-03T19:01:04.082Z,16.10
2017-11-03T19:06:07.037Z,15.90
2017-11-03T19:08:34.513Z,15.40
2017-11-03T19:11:01.958Z,15.50
2017-11-03T19:13:29.432Z,15.80
2017-11-03T19:15:57.638Z,15.90
2017-11-03T19:18:25.078Z,15.80
2017-11-03T19:20:53.283Z,16.10
2017-11-03T19:23:20.713Z,16.10
2017-11-03T19:25:48.920Z,15.90
2017-11-03T19:28:16.366Z,15.80
2017-11-03T19:30:44.598Z,15.60
2017-11-03T19:33:12.129Z,15.60
2017-11-03T19:35:40.358Z,15.30
2017-11-03T19:38:07.818Z,15.30
2017-11-03T19:40:35.286Z,15.20
2017-11-03T19:43:02.737Z,15.20
2017-11-03T19:45:30.225Z,15.30
2017-11-03T19:47:57.661Z,15.60
2017-11-03T19:50:25.117Z,15.60
2017-11-03T19:52:52.602Z,15.50
2017-11-03T19:55:20.048Z,15.50
2017-11-03T19:57:47.537Z,15.60
2017-11-03T20:00:14.996Z,15.40
2017-11-03T20:02:42.445Z,15.50
2017-11-03T20:05:11.054Z,15.50
2017-11-03T20:07:38.497Z,15.50
2017-11-03T20:10:05.949Z,15.60
2017-11-03T20:12:33.472Z,15.50
2017-11-03T20:15:00.945Z,15.60
2017-11-03T20:17:28.414Z,15.60
2017-11-03T20:19:55.839Z,15.40
2017-11-03T20:22:23.402Z,15.40
2017-11-03T20:24:50.863Z,15.50
2017-11-03T20:27:18.327Z,15.50
2017-11-03T20:29:45.782Z,15.40
2017-11-03T20:32:13.267Z,15.50
2017-11-03T20:34:40.740Z,15.50
2017-11-03T20:37:08.237Z,15.40
2017-11-03T20:39:35.669Z,15.30
2017-11-03T20:42:03.183Z,15.20
2017-11-03T20:44:30.638Z,15.20
2017-11-03T20:46:58.097Z,15.10
2017-11-03T20:49:25.580Z,15.00
2017-11-03T20:51:53.120Z,15.00
2017-11-03T20:54:20.596Z,14.90
2017-11-03T20:56:48.060Z,14.80
2017-11-03T20:59:15.541Z,14.70
2017-11-03T21:01:42.991Z,14.70
2017-11-03T21:04:10.457Z,14.60
2017-11-03T21:06:37.931Z,14.60
2017-11-03T21:09:06.154Z,14.40
2017-11-03T21:11:33.642Z,14.40
2017-11-03T21:14:01.123Z,14.30
2017-11-03T21:16:28.577Z,14.40
2017-11-03T21:18:56.004Z,14.20
2017-11-03T21:21:23.456Z,14.30
2017-11-03T21:23:50.918Z,14.10
2017-11-03T21:26:18.396Z,14.00
2017-11-03T21:28:45.840Z,14.00
2017-11-03T21:31:13.320Z,14.10
2017-11-03T21:33:41.509Z,14.00
2017-11-03T21:36:08.950Z,14.00
2017-11-03T21:38:37.140Z,13.90
2017-11-03T21:41:04.593Z,13.90
2017-11-03T21:43:32.215Z,13.80
2017-11-03T21:46:00.440Z,13.90
2017-11-03T21:48:27.895Z,13.90
2017-11-03T21:50:56.093Z,14.20
2017-11-03T21:53:23.549Z,14.10
2017-11-03T21:55:50.986Z,14.10
2017-11-03T21:58:18.425Z,14.00
2017-11-03T22:00:46.638Z,13.90
2017-11-03T22:03:14.081Z,13.90
2017-11-03T22:05:41.538Z,14.10
2017-11-03T22:08:09.061Z,14.30
2017-11-03T22:10:36.522Z,14.30
2017-11-03T22:13:03.977Z,14.20
2017-11-03T22:15:31.472Z,14.20
2017-11-03T22:17:59.005Z,14.20
2017-11-03T22:20:27.231Z,13.90
2017-11-03T22:22:54.661Z,13.90
2017-11-03T22:25:22.351Z,13.70
2017-11-03T22:27:49.782Z,13.60
2017-11-03T22:30:17.243Z,13.70
2017-11-03T22:32:46.333Z,13.60
2017-11-03T22:35:14.617Z,13.40
2017-11-03T22:37:42.079Z,13.40
2017-11-03T22:40:09.527Z,13.50
2017-11-03T22:42:36.971Z,13.40
2017-11-03T22:45:05.180Z,13.40
2017-11-03T22:47:32.627Z,13.40
2017-11-03T22:50:00.065Z,13.40
2017-11-03T22:52:28.292Z,13.40
2017-11-03T22:54:55.754Z,13.30
2017-11-03T22:57:23.305Z,13.40
2017-11-03T22:59:50.746Z,13.40
2017-11-03T23:02:18.224Z,13.50
2017-11-03T23:04:45.664Z,13.50
2017-11-03T23:07:13.152Z,13.50
2017-11-03T23:09:41.529Z,13.80
2017-11-03T23:12:08.983Z,13.80
2017-11-03T23:14:36.438Z,13.90
2017-11-03T23:17:03.935Z,13.80
2017-11-03T23:19:31.394Z,13.80
2017-11-03T23:22:01.569Z,13.80
2017-11-03T23:24:29.042Z,13.80
2017-11-03T23:26:57.285Z,13.80
2017-11-03T23:29:26.147Z,13.60
2017-11-03T23:31:54.405Z,13.40
2017-11-03T23:34:21.856Z,13.40
2017-11-03T23:36:49.367Z,13.30
2017-11-03T23:39:17.201Z,13.10
2017-11-03T23:41:45.481Z,13.20
2017-11-03T23:44:13.717Z,13.10
2017-11-03T23:46:41.185Z,13.00
2017-11-03T23:49:08.640Z,13.10
2017-11-03T23:51:36.885Z,13.20
2017-11-03T23:54:04.380Z,13.20
2017-11-03T23:56:31.840Z,13.20
2017-11-03T23:58:59.287Z,13.10
